Time;durP1;ratioP1;P1;durP2;ratioP2;P2;SDS_P1;SDS_P2;PMS_P1;PMS_P2;Temp;Humidity;BMP_temperature;BMP_pressure;BME280_temperature;BME280_humidity;BME280_pressure;Samples;Min_cycle;Max_cycle;Signal;HPM_P1;HPM_P2
2023/06/30 00:03:11;;;;;;;;;;;21.40;99.60;;;20.73;56.78;99421.81;10249541;28;1988;-68
2023/06/30 00:08:08;;;;;;;;;;;21.50;99.70;;;20.75;56.78;99425.22;10249363;28;792;-67
2023/06/30 00:13:03;;;;;;;;;;;21.40;99.50;;;20.72;56.87;99425.41;10249081;28;893;-67
2023/06/30 00:17:59;;;;;;;;;;;21.30;99.20;;;20.73;56.81;99415.66;10249338;28;755;-67
2023/06/30 00:22:54;;;;;;;;;;;21.40;99.50;;;20.73;56.78;99399.75;10248839;28;1965;-67
2023/06/30 00:27:50;;;;;;;;;;;;;;;20.71;56.74;99399.00;10248460;28;846;-67
2023/06/30 00:32:46;;;;;;;;;;;21.30;99.20;;;20.71;56.75;99401.66;10248598;28;1243;-67
2023/06/30 00:37:41;;;;;;;;;;;21.30;99.20;;;20.72;56.70;99403.34;10248835;28;933;-67
2023/06/30 00:42:37;;;;;;;;;;;;;;;20.69;56.88;99404.38;10247896;28;1973;-67
2023/06/30 00:47:33;;;;;;;;;;;;;;;20.68;56.90;99412.44;10248430;28;1039;-67
2023/06/30 00:52:29;;;;;;;;;;;;;;;20.69;56.81;99416.78;10248291;28;814;-67
2023/06/30 00:57:25;;;;;;;;;;;;;;;20.70;56.69;99400.81;10247626;28;854;-67
2023/06/30 01:02:21;;;;;;;;;;;;;;;20.70;56.79;99398.16;10247200;28;1965;-67
2023/06/30 01:07:16;;;;;;;;;;;21.30;99.40;;;20.70;56.81;99411.41;10246521;28;861;-67
2023/06/30 01:12:12;;;;;;;;;;;;;;;20.70;56.56;99400.81;10247175;28;870;-67
2023/06/30 01:17:08;;;;;;;;;;;;;;;20.69;56.62;99412.31;10246113;28;818;-67
2023/06/30 01:22:04;;;;;;;;;;;;;;;20.68;56.75;99413.28;10246448;28;1906;-67
2023/06/30 01:27:00;;;;;;;;;;;;;;;20.68;56.73;99407.13;10246929;28;878;-67
2023/06/30 01:31:56;;;;;;;;;;;;;;;20.67;56.72;99410.72;10246062;28;1098;-67
2023/06/30 01:36:52;;;;;;;;;;;;;;;20.67;56.62;99408.06;10245974;28;771;-67
2023/06/30 01:41:47;;;;;;;;;;;21.30;99.40;;;20.68;56.63;99415.09;10244390;28;1914;-68
2023/06/30 01:46:43;;;;;;;;;;;;;;;20.65;56.67;99415.28;10245597;28;875;-67
2023/06/30 01:51:39;;;;;;;;;;;;;;;20.64;56.87;99411.75;10245932;28;839;-67
2023/06/30 01:56:35;;;;;;;;;;;;;;;20.64;56.80;99408.25;10245163;28;995;-67
2023/06/30 02:01:31;;;;;;;;;;;;;;;20.65;56.71;99412.63;10244951;28;1914;-67
2023/06/30 02:06:27;;;;;;;;;;;;;;;20.65;56.62;99409.97;10244303;28;959;-67
2023/06/30 02:11:23;;;;;;;;;;;;;;;20.62;56.64;99413.66;10245546;28;802;-68
2023/06/30 02:16:19;;;;;;;;;;;;;;;20.63;56.74;99419.81;10244512;28;1057;-67
2023/06/30 02:21:15;;;;;;;;;;;;;;;20.61;56.73;99421.69;10243845;28;1902;-67
2023/06/30 02:26:11;;;;;;;;;;;;;;;20.61;56.68;99426.97;10243698;28;1074;-67
2023/06/30 02:31:07;;;;;;;;;;;;;;;20.61;56.61;99430.47;10243997;28;1141;-67
2023/06/30 02:36:03;;;;;;;;;;;;;;;20.60;56.52;99436.72;10244778;28;885;-67
2023/06/30 02:40:59;;;;;;;;;;;;;;;20.60;56.58;99447.31;10244593;28;941;-67
2023/06/30 02:45:55;;;;;;;;;;;;;;;20.62;56.60;99447.22;10243809;28;1985;-67
2023/06/30 02:50:51;;;;;;;;;;;;;;;20.61;56.52;99445.53;10245131;28;914;-67
2023/06/30 02:55:47;;;;;;;;;;;;;;;20.61;56.63;99438.41;10252899;28;844;-67
2023/06/30 03:00:44;;;;;;;;;;;;;;;20.60;56.52;99438.53;10251215;28;1006;-67
2023/06/30 03:05:40;;;;;;;;;;;;;;;20.59;56.66;99450.91;10252323;28;1890;-67
2023/06/30 03:10:36;;;;;;;;;;;;;;;20.58;56.69;99455.34;10251598;28;760;-67
2023/06/30 03:15:32;;;;;;;;;;;;;;;20.59;56.59;99456.19;10251318;28;913;-67
2023/06/30 03:20:28;;;;;;;;;;;;;;;20.60;56.40;99457.06;10251768;28;976;-67
2023/06/30 03:25:24;;;;;;;;;;;;;;;20.58;56.37;99449.19;10251504;28;1952;-67
2023/06/30 03:30:20;;;;;;;;;;;;;;;20.58;56.59;99443.91;10251421;28;900;-67
2023/06/30 03:35:16;;;;;;;;;;;;;;;20.57;56.62;99451.00;10251700;28;1114;-67
2023/06/30 03:40:12;;;;;;;;;;;;;;;20.57;56.57;99448.34;10250470;28;897;-67
2023/06/30 03:45:09;;;;;;;;;;;;;;;20.58;56.50;99458.00;10250182;28;1965;-67
2023/06/30 03:50:05;;;;;;;;;;;;;;;20.57;56.48;99458.94;10250081;28;811;-67
2023/06/30 03:55:02;;;;;;;;;;;;;;;20.56;56.51;99461.66;10250359;28;784;-67
2023/06/30 03:59:58;;;;;;;;;;;;;;;20.56;56.52;99456.38;10250445;28;851;-67
2023/06/30 04:04:54;;;;;;;;;;;;;;;20.56;56.53;99456.38;10248602;28;1898;-67
2023/06/30 04:09:50;;;;;;;;;;;;;;;20.55;56.55;99455.53;10249326;28;866;-67
2023/06/30 04:14:48;;;;;;;;;;;;;;;20.54;56.45;99453.84;10248513;28;913;-67
2023/06/30 04:19:44;;;;;;;;;;;;;;;20.54;56.53;99447.66;10249455;28;866;-67
2023/06/30 04:24:40;;;;;;;;;;;;;;;20.53;56.45;99453.88;10248670;28;1949;-67
2023/06/30 04:29:37;;;;;;;;;;;;;;;20.52;56.48;99449.53;10249178;28;876;-67
2023/06/30 04:34:34;;;;;;;;;;;;;;;20.51;56.52;99453.13;10249231;28;1130;-69
2023/06/30 04:39:30;;;;;;;;;;;;;;;20.51;56.45;99453.13;10248189;28;852;-67
2023/06/30 04:44:27;;;;;;;;;;;;;;;20.50;56.42;99456.72;10248778;28;1969;-67
2023/06/30 04:49:24;;;;;;;;;;;;;;;20.50;56.40;99457.56;10248499;28;884;-67
2023/06/30 04:54:21;;;;;;;;;;;;;;;20.50;56.58;99467.31;10248246;28;963;-67
2023/06/30 04:59:17;;;;;;;;;;;;;;;20.49;56.54;99465.63;10247820;28;833;-67
2023/06/30 05:04:14;;;;;;;;;;;;;;;20.49;56.65;99458.53;10246517;28;1890;-67
2023/06/30 05:09:10;;;;;;;;;;;;;;;20.50;56.86;99460.22;10247983;28;786;-67
2023/06/30 05:14:07;;;;;;;;;;;;;;;20.51;56.80;99466.34;10245524;28;875;-68
2023/06/30 05:19:03;;;;;;;;;;;;;;;20.51;56.72;99469.00;10246635;28;775;-67
2023/06/30 05:23:59;;;;;;;;;;;;;;;20.50;56.77;99464.66;10246397;28;1957;-67
2023/06/30 05:28:55;;;;;;;;;;;;;;;20.50;56.69;99473.44;10246305;28;779;-67
2023/06/30 05:33:51;;;;;;;;;;;;;;;20.47;56.80;99468.34;10246053;28;1453;-67
2023/06/30 05:38:48;;;;;;;;;;;;;;;20.51;57.04;99471.66;10246500;28;1146;-67
2023/06/30 05:43:44;;;;;;;;;;;;;;;20.58;56.91;99459.78;10245605;28;1918;-67
2023/06/30 05:48:40;;;;;;;;;;;;;;;20.62;56.81;99456.03;10246174;28;811;-67
2023/06/30 05:53:36;;;;;;;;;;;;;;;20.65;56.71;99458.50;10228262;28;908;-66
2023/06/30 05:58:33;;;;;;;;;;;;;;;20.66;56.62;99469.94;10245156;28;821;-66
2023/06/30 06:03:30;;;;;;;;;;;;;;;20.67;56.43;99468.97;10244327;28;1894;-66
2023/06/30 06:08:26;;;;;;;;;;;;;;;20.69;56.64;99475.03;10244819;28;915;-66
2023/06/30 06:13:23;;;;;;;;;;;;;;;20.68;56.49;99476.84;10244753;28;866;-66
2023/06/30 06:18:19;;;;;;;;;;;;;;;20.67;56.37;99483.09;10245222;28;811;-66
2023/06/30 06:23:15;;;;;;;;;;;;;;;20.69;56.41;99483.84;10244934;28;1893;-66
2023/06/30 06:28:12;;;;;;;;;;;;;;;20.69;56.33;99488.28;10244554;28;794;-66
2023/06/30 06:33:08;;;;;;;;;;;;;;;20.69;56.17;99485.63;10244692;28;1436;-66
2023/06/30 06:38:04;;;;;;;;;;;;;;;20.67;56.38;99488.38;10243842;28;825;-67
2023/06/30 06:43:00;;;;;;;;;;;;;;;20.65;56.44;99487.63;10243933;28;1969;-67
2023/06/30 06:47:57;;;;;;;;;;;;;;;20.65;56.30;99492.06;10243858;28;942;-67
2023/06/30 06:52:53;;;;;;;;;;;;;;;20.69;56.45;99498.88;10243873;28;944;-67
2023/06/30 06:57:50;;;;;;;;;;;;;;;20.68;56.37;99494.53;10243796;28;790;-67
2023/06/30 07:02:46;;;;;;;;;;;;;;;20.65;56.50;99487.63;10243538;28;1943;-67
2023/06/30 07:07:42;;;;;;;;;;;;;;;20.67;56.33;99482.22;10243026;28;883;-67
2023/06/30 07:12:38;;;;;;;;;;;;;;;20.70;56.39;99487.34;10244131;28;846;-67
2023/06/30 07:17:35;;;;;;;;;;;;;;;20.67;56.53;99498.97;10243353;28;802;-67
2023/06/30 07:22:32;;;;;;;;;;;;;;;20.67;56.34;99496.34;10244392;28;1894;-67
2023/06/30 07:27:29;;;;;;;;;;;;;;;20.63;56.47;99488.66;10244241;28;840;-67
2023/06/30 07:32:25;;;;;;;;;;;;;;;20.66;56.48;99494.59;10243445;28;1253;-67
2023/06/30 07:37:21;;;;;;;;;;;;;;;20.59;56.15;99498.56;10242954;28;925;-66
2023/06/30 07:42:18;;;;;;;;;;;;;;;20.52;56.48;99499.84;10250894;28;1958;-66
2023/06/30 07:47:14;;;;;;;;;;;;;;;20.52;56.46;99502.50;10250209;28;961;-66
2023/06/30 07:52:10;;;;;;;;;;;;;;;20.61;56.60;99503.78;10250042;28;976;-66
2023/06/30 07:57:07;;;;;;;;;;;;;;;20.60;56.54;99505.56;10249256;28;885;-66
2023/06/30 08:02:05;;;;;;;;;;;;;;;20.57;56.62;99500.47;10249807;28;1898;-66
2023/06/30 08:07:02;;;;;;;;;;;;;;;20.62;56.40;99506.34;10248821;28;966;-66
2023/06/30 08:11:58;;;;;;;;;;;;;;;20.64;56.33;99506.25;10249287;28;929;-66
2023/06/30 08:16:55;;;;;;;;;;;;;;;20.63;56.20;99515.13;10249088;28;893;-67
2023/06/30 08:21:51;;;;;;;;;;;;;;;20.58;56.22;99518.03;10249524;28;1949;-66
2023/06/30 08:26:47;;;;;;;;;;;;;;;20.58;56.07;99516.25;10248887;28;961;-66
2023/06/30 08:31:44;;;;;;;;;;;;;;;20.63;56.16;99517.78;10248452;28;1268;-66
2023/06/30 08:36:40;;;;;;;;;;;;;;;20.58;55.71;99520.69;10249036;28;822;-66
2023/06/30 08:41:37;;;;;;;;;;;;;;;20.63;55.70;99531.03;10248815;28;878;-66
2023/06/30 08:46:33;;;;;;;;;;;;;;;20.57;55.56;99527.78;10248077;28;1918;-67
2023/06/30 08:51:30;;;;;;;;;;;;;;;20.68;56.19;99521.88;10247615;28;763;-66
2023/06/30 08:56:26;;;;;;;;;;;;;;;20.70;55.26;99514.69;10247664;28;787;-66
2023/06/30 09:01:23;;;;;;;;;;;;;;;20.68;55.59;99515.72;10247129;28;1028;-67
2023/06/30 09:06:19;;;;;;;;;;;;;;;20.62;54.58;99516.94;10247921;28;1898;-67
2023/06/30 09:11:17;;;;;;;;;;;;;;;20.64;54.81;99499.13;10247199;28;856;-66
2023/06/30 09:16:15;;;;;;;;;;;;;;;20.70;55.12;99508.53;10246373;28;849;-66
2023/06/30 09:21:12;;;;;;;;;;;;;;;20.69;55.44;99510.31;10246592;28;883;-67
2023/06/30 09:26:08;;;;;;;;;;;;;;;20.65;55.72;99503.50;10245741;28;1902;-67
2023/06/30 09:31:05;;;;;;;;;;;;;;;20.64;55.36;99501.78;10246080;28;1097;-67
2023/06/30 09:36:02;;;;;;;;;;;;;;;20.70;55.30;99505.91;10246023;28;969;-67
2023/06/30 09:40:58;;;;;;;;;;;;;;;20.67;55.73;99501.63;10246502;28;783;-67
2023/06/30 09:45:55;;;;;;;;;;;;;;;20.65;55.44;99507.97;10245607;28;1914;-67
2023/06/30 09:50:51;;;;;;;;;;;;;;;20.64;55.49;99500.94;10245432;28;896;-67
2023/06/30 09:55:48;;;;;;;;;;;;;;;20.66;55.27;99494.59;10245313;28;855;-66
2023/06/30 10:00:45;;;;;;;;;;;;;;;20.64;55.50;99493.00;10243977;28;989;-67
2023/06/30 10:05:42;;;;;;;;;;;;;;;20.69;55.31;99496.22;10244882;28;1898;-67
2023/06/30 10:10:38;;;;;;;;;;;;;;;20.72;55.34;99493.38;10245471;28;865;-67
2023/06/30 10:15:35;;;;;;;;;;;;;;;20.72;55.06;99496.91;10244906;28;803;-67
2023/06/30 10:20:31;;;;;;;;;;;;;;;20.74;54.93;99487.06;10244713;28;862;-67
2023/06/30 10:25:28;;;;;;;;;;;;;;;20.69;55.40;99494.44;10244375;28;1950;-67
2023/06/30 10:30:24;;;;;;;;;;;;;;;20.65;55.13;99494.72;10244521;28;958;-67
2023/06/30 10:35:21;;;;;;;;;;;;;;;20.64;55.30;99495.66;10244854;28;1192;-66
2023/06/30 10:40:17;;;;;;;;;;;;;;;20.69;54.81;99497.06;10244151;28;913;-67
2023/06/30 10:45:14;;;;;;;;;;;;;;;20.70;54.24;99484.72;10244564;28;1977;-67
2023/06/30 10:50:11;;;;;;;;;;;;;;;20.73;54.75;99484.53;10244141;28;906;-67
2023/06/30 10:55:07;;;;;;;;;;;;;;;20.73;54.34;99471.28;10243846;28;860;-67
2023/06/30 11:00:04;;;;;;;;;;;;;;;20.70;54.28;99477.59;10243623;28;862;-67
2023/06/30 11:05:00;;;;;;;;;;;;;;;20.67;54.95;99469.84;10243504;28;1890;-66
2023/06/30 11:09:57;;;;;;;;;;;;;;;20.73;54.35;99458.88;10244007;28;833;-67
2023/06/30 11:14:56;;;;;;;;;;;;;;;20.66;52.87;99454.88;10249649;28;965;-67
2023/06/30 11:19:53;;;;;;;;;;;;;;;20.69;54.11;99460.00;10251749;28;782;-67
2023/06/30 11:24:49;;;;;;;;;;;;;;;20.71;54.45;99455.47;10251693;28;1893;-67
2023/06/30 11:29:46;;;;;;;;;;;;;;;20.69;54.63;99454.69;10251112;28;919;-66
2023/06/30 11:34:43;;;;;;;;;;;;;;;20.70;53.23;99452.94;10251686;28;1121;-66
2023/06/30 11:39:39;;;;;;;;;;;;;;;20.75;54.00;99457.00;10250450;28;911;-66
2023/06/30 11:44:36;;;;;;;;;;;;;;;20.78;54.05;99450.66;10250295;28;1910;-65
2023/06/30 11:49:33;;;;;;;;;;;;;;;20.79;54.20;99457.66;10250960;28;874;-67
2023/06/30 11:54:30;;;;;;;;;;;;;;;20.81;54.29;99446.97;10249475;28;1008;-67
2023/06/30 11:59:26;;;;;;;;;;;;;;;20.79;54.06;99452.34;10250447;28;790;-65
2023/06/30 12:04:23;;;;;;;;;;;;;;;20.75;54.38;99446.41;10250081;28;1971;-66
2023/06/30 12:09:19;;;;;;;;;;;;;;;20.78;54.31;99440.91;10250359;28;798;-67
2023/06/30 12:14:16;;;;;;;;;;;;;;;20.81;54.53;99447.81;10249284;28;945;-65
2023/06/30 12:19:13;;;;;;;;;;;;;;;20.81;54.56;99445.19;10249387;28;976;-66
2023/06/30 12:24:09;;;;;;;;;;;;;;;20.77;54.58;99441.00;10248721;28;1910;-67
2023/06/30 12:29:06;;;;;;;;;;;;;;;20.74;54.27;99442.03;10248792;28;889;-67
2023/06/30 12:34:02;;;;;;;;;;;;;;;20.75;53.20;99450.81;10249322;28;1318;-67
2023/06/30 12:38:59;;;;;;;;;;;;;;;20.74;54.21;99430.59;10248615;28;924;-67
2023/06/30 12:43:58;;;;;;;;;;;;;;;20.73;54.41;99431.56;10247581;28;1906;-67
2023/06/30 12:48:54;;;;;;;;;;;;;;;20.74;54.17;99425.28;10248028;28;778;-66
2023/06/30 12:53:51;;;;;;;;;;;;;;;20.78;54.24;99419.72;10247796;28;764;-67
2023/06/30 12:58:47;;;;;;;;;;;;;;;20.73;54.57;99426.25;10247833;28;962;-67
2023/06/30 13:03:44;;;;;;;;;;;;;;;20.72;54.65;99420.09;10246693;28;1890;-66
2023/06/30 13:08:41;;;;;;;;;;;;;;;20.73;54.47;99421.81;10246946;28;881;-67
2023/06/30 13:13:37;;;;;;;;;;;;;;;20.77;54.56;99422.44;10246702;28;772;-67
2023/06/30 13:18:34;;;;;;;;;;;;;;;20.86;53.78;99421.06;10246615;28;779;-67
2023/06/30 13:23:30;;;;;;;;;;;;;;;20.88;53.80;99416.50;10247112;28;1894;-66
2023/06/30 13:28:27;;;;;;;;;;;;;;;20.89;54.24;99410.28;10247097;28;858;-67
2023/06/30 13:33:23;;;;;;;;;;;;;;;20.92;53.95;99407.44;10245822;28;1381;-67
2023/06/30 13:38:20;;;;;;;;;;;;;;;20.94;54.01;99405.53;10244911;28;891;-66
2023/06/30 13:43:17;;;;;;;;;;;;;;;20.98;54.00;99402.59;10245493;28;1973;-66
2023/06/30 13:48:13;;;;;;;;;;;;;;;21.00;54.16;99394.56;10245497;28;861;-66
2023/06/30 13:53:10;;;;;;;;;;;;;;;21.05;54.04;99395.13;10245795;28;923;-66
2023/06/30 13:58:06;;;;;;;;;;;;;;;21.10;53.96;99400.97;10227708;28;913;-67
2023/06/30 14:03:03;;;;;;;;;;;;;;;21.15;53.67;99390.94;10245066;28;1906;-66
2023/06/30 14:07:59;;;;;;;;;;;;;;;21.20;53.50;99372.94;10245658;28;854;-66
2023/06/30 14:12:56;;;;;;;;;;;;;;;21.26;53.61;99382.31;10244901;28;1117;-66
2023/06/30 14:17:53;;;;;;;;;;;;;;;21.29;53.60;99371.50;10244708;28;921;-66
2023/06/30 14:22:49;;;;;;;;;;;;;;;21.33;53.75;99375.69;10244527;28;1894;-66
2023/06/30 14:27:46;;;;;;;;;;;;;;;21.36;53.67;99362.22;10245252;28;862;-66
2023/06/30 14:32:42;;;;;;;;;;;;;;;21.42;53.70;99358.34;10244493;28;1314;-66
2023/06/30 14:37:39;;;;;;;;;;;;;;;21.46;53.54;99367.81;10244850;28;817;-66
2023/06/30 14:42:36;;;;;;;;;;;;;;;21.45;53.54;99344.88;10244029;28;896;-65
2023/06/30 14:47:32;;;;;;;;;;;;;;;21.36;53.74;99353.44;10247754;28;1976;-65
2023/06/30 14:52:29;;;;;;;;;;;;;;;21.43;53.66;99362.69;10258103;28;893;-65
2023/06/30 14:57:25;;;;;;;;;;;;;;;21.36;53.61;99348.13;10257470;28;877;-65
2023/06/30 15:02:22;;;;;;;;;;;;;;;21.34;53.80;99347.38;10258069;28;950;-65
2023/06/30 15:07:18;;;;;;;;;;;;;;;21.27;53.99;99340.75;10256887;28;1906;-65
2023/06/30 15:12:15;;;;;;;;;;;;;;;21.39;53.91;99332.03;10257579;28;771;-63
2023/06/30 15:17:12;;;;;;;;;;;;;;;21.48;53.72;99333.22;10256890;28;787;-67
2023/06/30 15:22:08;;;;;;;;;;;;;;;21.47;53.72;99327.09;10256753;28;858;-67
2023/06/30 15:27:05;;;;;;;;;;;;;;;21.55;53.45;99331.91;10256711;28;1973;-66
2023/06/30 15:32:02;;;;;;;;;;;;;;;21.67;53.18;99329.28;10256711;28;1400;-67
2023/06/30 15:36:58;;;;;;;;;;;;;;;21.69;53.13;99323.03;10256546;28;783;-67
2023/06/30 15:41:55;;;;;;;;;;;;;;;21.54;53.67;99319.59;10257299;28;858;-67
2023/06/30 15:46:51;;;;;;;;;;;;;;;21.63;53.39;99314.50;10256539;28;1977;-67
2023/06/30 15:51:48;;;;;;;;;;;;;;;21.55;53.48;99318.63;10256469;28;798;-67
2023/06/30 15:56:45;;;;;;;;;;;;;;;21.53;53.63;99316.06;10256809;28;922;-66
2023/06/30 16:01:41;;;;;;;;;;;;;;;21.55;53.62;99308.88;10248926;28;922;-67
2023/06/30 16:06:38;;;;;;;;;;;;;;;21.60;53.42;99306.75;10232095;28;1977;-68
2023/06/30 16:11:34;;;;;;;;;;;;;;;21.37;54.13;99294.13;10248752;28;1257;-66
2023/06/30 16:16:31;;;;;;;;;;;;;;;21.26;54.24;99294.84;10249943;28;869;-67
2023/06/30 16:21:28;;;;;;;;;;;;;;;21.22;54.14;99286.25;10249079;28;835;-67
2023/06/30 16:26:24;;;;;;;;;;;;;;;21.18;54.37;99282.06;10249511;28;1965;-67
2023/06/30 16:31:21;;;;;;;;;;;;;;;21.16;54.44;99270.72;10248733;28;1175;-67
2023/06/30 16:36:17;;;;;;;;;;;;;;;21.13;54.48;99265.63;10247974;28;905;-67
2023/06/30 16:41:14;;;;;;;;;;;;;;;21.12;54.54;99263.09;10248986;28;928;-67
2023/06/30 16:46:11;;;;;;;;;;;;;;;21.10;54.63;99260.53;10248693;28;1913;-67
2023/06/30 16:51:07;;;;;;;;;;;;;;;21.09;54.58;99252.66;10248628;28;856;-66
2023/06/30 16:56:04;;;;;;;;;;;;;;;21.08;54.69;99257.13;10247901;28;913;-67
2023/06/30 17:01:00;;;;;;;;;;;;;;;21.08;54.73;99250.97;10248294;28;877;-67
2023/06/30 17:05:57;;;;;;;;;;;;;;;21.06;54.61;99247.56;10247493;28;1894;-67
2023/06/30 17:10:54;;;;;;;;;;;;;;;21.09;54.42;99247.38;10247188;28;869;-67
2023/06/30 17:15:50;;;;;;;;;;;;;;;21.07;54.67;99249.28;10246937;28;872;-67
2023/06/30 17:20:47;;;;;;;;;;;;;;;21.05;54.58;99241.44;10247034;28;818;-67
2023/06/30 17:25:44;;;;;;;;;;;;;;;21.05;54.69;99243.22;10247430;28;1977;-67
2023/06/30 17:30:40;;;;;;;;;;;;;;;21.04;54.61;99238.88;10246463;28;1023;-68
2023/06/30 17:35:37;;;;;;;;;;;;;;;21.03;54.74;99238.03;10246201;28;932;-67
2023/06/30 17:40:34;;;;;;;;;;;;;;;21.01;54.68;99239.91;10246050;28;929;-66
2023/06/30 17:45:30;;;;;;;;;;;;;;;21.00;54.71;99239.06;10246601;28;2089;-67
2023/06/30 17:50:29;;;;;;;;;;;;;;;21.01;54.84;99231.97;10245457;28;1004;-67
2023/06/30 17:55:26;;;;;;;;;;;;;;;21.00;54.75;99232.91;10245586;28;884;-67
2023/06/30 18:00:22;;;;;;;;;;;;;;;20.99;54.83;99226.78;10245311;28;998;-68
2023/06/30 18:05:19;;;;;;;;;;;;;;;20.98;54.81;99230.34;10245526;28;1898;-67
2023/06/30 18:10:16;;;;;;;;;;;;;;;20.98;54.85;99234.81;10245630;28;822;-67
2023/06/30 18:15:12;;;;;;;;;;;;;;;20.98;54.72;99229.50;10245672;28;765;-67
2023/06/30 18:20:09;;;;;;;;;;;;;;;20.97;54.75;99223.38;10244600;28;961;-68
2023/06/30 18:25:06;;;;;;;;;;;;;;;20.96;54.76;99228.78;10244895;28;1906;-67
2023/06/30 18:30:03;;;;;;;;;;;;;;;20.96;54.75;99228.78;10245244;28;833;-67
2023/06/30 18:35:00;;;;;;;;;;;;;;;20.96;54.86;99237.59;10243785;28;1240;-67
2023/06/30 18:39:56;;;;;;;;;;;;;;;20.96;54.72;99226.13;10244862;28;941;-67
2023/06/30 18:44:53;;;;;;;;;;;;;;;20.96;54.76;99223.50;10244021;28;1973;-67
2023/06/30 18:49:50;;;;;;;;;;;;;;;20.95;54.77;99224.41;10244562;28;864;-67
2023/06/30 18:54:46;;;;;;;;;;;;;;;20.94;54.83;99222.72;10244509;28;916;-67
2023/06/30 18:59:43;;;;;;;;;;;;;;;20.94;54.67;99222.72;10244416;28;882;-67
2023/06/30 19:04:40;;;;;;;;;;;;;;;20.94;54.77;99212.13;10243679;28;1965;-67
2023/06/30 19:09:36;;;;;;;;;;;;;;;20.93;54.76;99216.59;10244317;28;917;-67
2023/06/30 19:14:33;;;;;;;;;;;;;;;20.93;54.90;99213.06;10243576;28;817;-67
2023/06/30 19:19:31;;;;;;;;;;;;;;;20.93;54.90;99221.88;10244069;28;814;-67
2023/06/30 19:24:28;;;;;;;;;;;;;;;20.92;54.90;99216.69;10243214;28;1918;-67
2023/06/30 19:29:24;;;;;;;;;;;;;;;20.92;54.85;99220.16;10243319;28;1022;-67
2023/06/30 19:34:21;;;;;;;;;;;;;;;20.92;54.70;99224.63;10245552;28;1309;-67
2023/06/30 19:39:17;;;;;;;;;;;;;;;20.90;54.51;99222.06;10250809;28;794;-66
2023/06/30 19:44:14;;;;;;;;;;;;;;;20.88;54.68;99229.28;10250530;28;1918;-66
2023/06/30 19:49:11;;;;;;;;;;;;;;;20.89;54.60;99230.13;10250434;28;937;-66
2023/06/30 19:54:10;;;;;;;;;;;;;;;20.89;54.40;99230.13;10250251;28;801;-67
2023/06/30 19:59:08;;;;;;;;;;;;;;;20.87;54.45;99224.06;10250569;28;833;-67
2023/06/30 20:04:04;;;;;;;;;;;;;;;20.87;54.34;99221.41;10249607;28;1965;-67
2023/06/30 20:09:01;;;;;;;;;;;;;;;20.87;54.69;99224.06;10249109;28;918;-67
2023/06/30 20:13:57;;;;;;;;;;;;;;;20.87;54.61;99224.06;10249418;28;973;-66
2023/06/30 20:18:54;;;;;;;;;;;;;;;20.87;54.54;99224.06;10249300;28;782;-67
2023/06/30 20:23:51;;;;;;;;;;;;;;;20.88;54.55;99217.81;10249597;28;1959;-66
2023/06/30 20:28:47;;;;;;;;;;;;;;;20.86;54.63;99217.09;10248412;28;908;-67
2023/06/30 20:33:44;;;;;;;;;;;;;;;20.86;54.67;99215.28;10247911;28;1531;-67
2023/06/30 20:38:42;;;;;;;;;;;;;;;20.86;54.48;99203.84;10248740;28;1061;-67
2023/06/30 20:43:39;;;;;;;;;;;;;;;20.86;54.43;99219.72;10248350;28;968;-67
2023/06/30 20:48:35;;;;;;;;;;;;;;;20.86;54.25;99214.44;10247579;28;1977;-67
2023/06/30 20:53:32;;;;;;;;;;;;;;;20.85;54.42;99208.25;10248176;28;810;-67
2023/06/30 20:58:29;;;;;;;;;;;;;;;20.84;54.44;99206.56;10247765;28;783;-66
2023/06/30 21:03:25;;;;;;;;;;;;;;;20.85;54.43;99199.47;10247952;28;1025;-66
2023/06/30 21:08:22;;;;;;;;;;;;;;;20.83;54.50;99188.13;10246735;28;1971;-66
2023/06/30 21:13:19;;;;;;;;;;;;;;;20.83;54.50;99190.75;10247727;28;858;-67
2023/06/30 21:18:15;;;;;;;;;;;;;;;20.82;54.44;99181.97;10246384;28;814;-67
2023/06/30 21:23:12;;;;;;;;;;;;;;;20.83;54.22;99182.81;10247052;28;823;-67
2023/06/30 21:28:09;;;;;;;;;;;;;;;20.82;54.56;99176.69;10246545;28;1965;-66
2023/06/30 21:33:05;;;;;;;;;;;;;;;20.81;54.44;99174.16;10246972;28;1275;-67
2023/06/30 21:38:02;;;;;;;;;;;;;;;20.81;54.47;99171.50;10246395;28;980;-67
2023/06/30 21:42:59;;;;;;;;;;;;;;;20.81;54.49;99163.56;10245476;28;871;-67
2023/06/30 21:47:55;;;;;;;;;;;;;;;20.81;54.56;99164.41;10245840;28;1914;-67
2023/06/30 21:52:52;;;;;;;;;;;;;;;20.79;54.45;99145.94;10245695;28;870;-67
2023/06/30 21:57:49;;;;;;;;;;;;;;;20.78;54.45;99141.59;10244701;28;774;-67
2023/06/30 22:02:46;;;;;;;;;;;;;;;20.78;54.32;99135.47;10245323;28;922;-67
2023/06/30 22:07:43;;;;;;;;;;;;;;;20.77;54.46;99139.03;10246016;28;1965;-67
2023/06/30 22:12:40;;;;;;;;;;;;;;;20.77;54.34;99125.81;10245582;28;881;-67
2023/06/30 22:17:37;;;;;;;;;;;;;;;20.75;54.28;99123.28;10246020;28;1016;-66
2023/06/30 22:22:34;;;;;;;;;;;;;;;20.75;54.34;99120.63;10244641;28;880;-67
2023/06/30 22:27:31;;;;;;;;;;;;;;;20.75;54.35;99123.28;10244500;28;1901;-67
2023/06/30 22:32:28;;;;;;;;;;;;;;;20.75;54.49;99117.09;10244361;28;1357;-67
2023/06/30 22:37:25;;;;;;;;;;;;;;;20.74;54.40;99105.66;10244229;28;929;-67
2023/06/30 22:42:22;;;;;;;;;;;;;;;20.73;54.40;99103.13;10244761;28;797;-67
2023/06/30 22:47:19;;;;;;;;;;;;;;;20.73;54.50;99098.69;10244004;28;1981;-67
2023/06/30 22:52:15;;;;;;;;;;;;;;;20.72;54.31;99091.69;10243979;28;996;-67
2023/06/30 22:57:12;;;;;;;;;;;;;;;20.72;54.56;99086.41;10243887;28;773;-66
2023/06/30 23:02:09;;;;;;;;;;;;;;;20.72;54.35;99081.09;10243161;28;925;-66
2023/06/30 23:07:05;;;;;;;;;;;;;;;20.72;54.43;99082.88;10244220;28;1910;-67
2023/06/30 23:12:02;;;;;;;;;;;;;;;20.70;54.03;99079.50;10251818;28;889;-67
2023/06/30 23:16:59;;;;;;;;;;;;;;;20.70;54.34;99076.84;10253071;28;857;-66
2023/06/30 23:22:05;;;;;;;;;;;;;;;20.69;54.44;99069.84;10252125;28;877;-67
2023/06/30 23:27:02;;;;;;;;;;;;;;;20.69;54.36;99073.34;10251156;28;1909;-67
2023/06/30 23:31:58;;;;;;;;;;;;;;;20.67;54.21;99066.44;10251783;28;1121;-67
2023/06/30 23:36:55;;;;;;;;;;;;;;;20.66;54.04;99062.13;10251693;28;901;-66
2023/06/30 23:41:52;;;;;;;;;;;;;;;20.67;54.21;99064.66;10251321;28;853;-67
2023/06/30 23:46:48;;;;;;;;;;;;;;;20.66;54.06;99064.75;10250190;28;1918;-67
2023/06/30 23:51:45;;;;;;;;;;;;;;;20.65;54.00;99066.56;10249731;28;1156;-67
2023/06/30 23:56:45;;;;;;;;;;;;;;;20.64;53.97;99048.97;10250394;28;794;-67
